sensor_id;sensor_type;location;lat;lon;timestamp;P1;durP1;ratioP1;P2;durP2;ratioP2
15404;SDS011;7801;48.124;11.590;2022-10-16T00:01:25;0.37;;;0.37;;
15404;SDS011;7801;48.124;11.590;2022-10-16T00:03:55;0.40;;;0.40;;
15404;SDS011;7801;48.124;11.590;2022-10-16T00:06:22;0.30;;;0.30;;
15404;SDS011;7801;48.124;11.590;2022-10-16T00:09:02;0.60;;;0.60;;
15404;SDS011;7801;48.124;11.590;2022-10-16T00:11:30;0.70;;;0.70;;
15404;SDS011;7801;48.124;11.590;2022-10-16T00:14:03;0.50;;;0.50;;
15404;SDS011;7801;48.124;11.590;2022-10-16T00:16:33;0.50;;;0.50;;
15404;SDS011;7801;48.124;11.590;2022-10-16T00:19:02;0.20;;;0.20;;
15404;SDS011;7801;48.124;11.590;2022-10-16T00:21:29;0.77;;;0.60;;
15404;SDS011;7801;48.124;11.590;2022-10-16T00:24:04;0.60;;;0.60;;
15404;SDS011;7801;48.124;11.590;2022-10-16T00:26:36;0.50;;;0.50;;
15404;SDS011;7801;48.124;11.590;2022-10-16T00:29:09;0.23;;;0.23;;
15404;SDS011;7801;48.124;11.590;2022-10-16T00:31:35;0.73;;;0.73;;
15404;SDS011;7801;48.124;11.590;2022-10-16T00:34:01;0.40;;;0.40;;
15404;SDS011;7801;48.124;11.590;2022-10-16T00:36:29;0.50;;;0.50;;
15404;SDS011;7801;48.124;11.590;2022-10-16T00:38:59;0.60;;;0.60;;
15404;SDS011;7801;48.124;11.590;2022-10-16T00:41:28;0.97;;;0.97;;
15404;SDS011;7801;48.124;11.590;2022-10-16T00:43:57;0.53;;;0.53;;
15404;SDS011;7801;48.124;11.590;2022-10-16T00:46:52;0.40;;;0.40;;
15404;SDS011;7801;48.124;11.590;2022-10-16T00:49:17;0.10;;;0.10;;
15404;SDS011;7801;48.124;11.590;2022-10-16T00:51:49;0.30;;;0.30;;
15404;SDS011;7801;48.124;11.590;2022-10-16T00:54:20;0.40;;;0.40;;
15404;SDS011;7801;48.124;11.590;2022-10-16T00:56:49;0.20;;;0.20;;
15404;SDS011;7801;48.124;11.590;2022-10-16T00:59:24;0.20;;;0.20;;
15404;SDS011;7801;48.124;11.590;2022-10-16T01:01:53;0.40;;;0.40;;
15404;SDS011;7801;48.124;11.590;2022-10-16T01:04:20;0.40;;;0.40;;
15404;SDS011;7801;48.124;11.590;2022-10-16T01:09:41;0.20;;;0.20;;
15404;SDS011;7801;48.124;11.590;2022-10-16T01:19:14;0.33;;;0.33;;
15404;SDS011;7801;48.124;11.590;2022-10-16T01:21:05;0.30;;;0.30;;
15404;SDS011;7801;48.124;11.590;2022-10-16T01:29:18;0.70;;;0.70;;
15404;SDS011;7801;48.124;11.590;2022-10-16T01:31:59;1.43;;;0.53;;
15404;SDS011;7801;48.124;11.590;2022-10-16T01:34:38;0.20;;;0.20;;
15404;SDS011;7801;48.124;11.590;2022-10-16T01:37:12;0.40;;;0.40;;
15404;SDS011;7801;48.124;11.590;2022-10-16T01:39:45;0.23;;;0.23;;
15404;SDS011;7801;48.124;11.590;2022-10-16T01:42:22;0.00;;;0.00;;
15404;SDS011;7801;48.124;11.590;2022-10-16T01:44:54;0.37;;;0.37;;
15404;SDS011;7801;48.124;11.590;2022-10-16T01:47:23;0.47;;;0.40;;
15404;SDS011;7801;48.124;11.590;2022-10-16T01:49:53;0.73;;;0.73;;
15404;SDS011;7801;48.124;11.590;2022-10-16T01:52:23;0.30;;;0.30;;
15404;SDS011;7801;48.124;11.590;2022-10-16T01:54:53;0.60;;;0.50;;
15404;SDS011;7801;48.124;11.590;2022-10-16T01:57:37;0.57;;;0.57;;
15404;SDS011;7801;48.124;11.590;2022-10-16T02:00:10;0.20;;;0.20;;
15404;SDS011;7801;48.124;11.590;2022-10-16T02:02:40;0.20;;;0.20;;
15404;SDS011;7801;48.124;11.590;2022-10-16T02:05:18;0.43;;;0.43;;
15404;SDS011;7801;48.124;11.590;2022-10-16T02:07:49;0.60;;;0.60;;
15404;SDS011;7801;48.124;11.590;2022-10-16T02:10:17;0.43;;;0.43;;
15404;SDS011;7801;48.124;11.590;2022-10-16T02:12:45;0.30;;;0.30;;
15404;SDS011;7801;48.124;11.590;2022-10-16T02:15:20;2.10;;;0.83;;
15404;SDS011;7801;48.124;11.590;2022-10-16T02:17:47;0.30;;;0.30;;
15404;SDS011;7801;48.124;11.590;2022-10-16T02:20:12;0.63;;;0.63;;
15404;SDS011;7801;48.124;11.590;2022-10-16T02:22:39;0.10;;;0.10;;
15404;SDS011;7801;48.124;11.590;2022-10-16T02:30:48;0.70;;;0.70;;
15404;SDS011;7801;48.124;11.590;2022-10-16T02:33:19;0.37;;;0.37;;
15404;SDS011;7801;48.124;11.590;2022-10-16T02:35:51;0.23;;;0.23;;
15404;SDS011;7801;48.124;11.590;2022-10-16T02:38:21;10.80;;;0.63;;
15404;SDS011;7801;48.124;11.590;2022-10-16T02:40:49;0.30;;;0.30;;
15404;SDS011;7801;48.124;11.590;2022-10-16T02:43:17;0.23;;;0.23;;
15404;SDS011;7801;48.124;11.590;2022-10-16T02:45:43;1.80;;;0.67;;
15404;SDS011;7801;48.124;11.590;2022-10-16T02:48:10;0.30;;;0.30;;
15404;SDS011;7801;48.124;11.590;2022-10-16T02:50:39;0.40;;;0.40;;
15404;SDS011;7801;48.124;11.590;2022-10-16T02:53:04;0.30;;;0.30;;
15404;SDS011;7801;48.124;11.590;2022-10-16T02:55:31;0.30;;;0.30;;
15404;SDS011;7801;48.124;11.590;2022-10-16T02:58:00;0.40;;;0.40;;
15404;SDS011;7801;48.124;11.590;2022-10-16T03:00:27;0.27;;;0.27;;
15404;SDS011;7801;48.124;11.590;2022-10-16T03:02:54;0.47;;;0.47;;
15404;SDS011;7801;48.124;11.590;2022-10-16T03:05:20;0.50;;;0.50;;
15404;SDS011;7801;48.124;11.590;2022-10-16T03:07:49;0.60;;;0.60;;
15404;SDS011;7801;48.124;11.590;2022-10-16T03:10:19;1.43;;;0.33;;
15404;SDS011;7801;48.124;11.590;2022-10-16T03:12:45;1.93;;;0.57;;
15404;SDS011;7801;48.124;11.590;2022-10-16T03:15:15;0.43;;;0.43;;
15404;SDS011;7801;48.124;11.590;2022-10-16T03:17:43;0.20;;;0.20;;
15404;SDS011;7801;48.124;11.590;2022-10-16T03:20:09;0.40;;;0.37;;
15404;SDS011;7801;48.124;11.590;2022-10-16T03:22:37;0.20;;;0.20;;
15404;SDS011;7801;48.124;11.590;2022-10-16T03:25:03;0.40;;;0.40;;
15404;SDS011;7801;48.124;11.590;2022-10-16T03:27:30;0.17;;;0.17;;
15404;SDS011;7801;48.124;11.590;2022-10-16T03:29:56;0.10;;;0.10;;
15404;SDS011;7801;48.124;11.590;2022-10-16T03:32:22;1.30;;;0.67;;
15404;SDS011;7801;48.124;11.590;2022-10-16T03:34:51;0.20;;;0.20;;
15404;SDS011;7801;48.124;11.590;2022-10-16T03:37:17;0.10;;;0.10;;
15404;SDS011;7801;48.124;11.590;2022-10-16T03:39:45;0.33;;;0.33;;
15404;SDS011;7801;48.124;11.590;2022-10-16T03:42:12;0.40;;;0.40;;
15404;SDS011;7801;48.124;11.590;2022-10-16T03:44:38;0.40;;;0.40;;
15404;SDS011;7801;48.124;11.590;2022-10-16T03:47:03;0.23;;;0.23;;
15404;SDS011;7801;48.124;11.590;2022-10-16T03:49:30;0.23;;;0.23;;
15404;SDS011;7801;48.124;11.590;2022-10-16T03:51:59;0.47;;;0.47;;
15404;SDS011;7801;48.124;11.590;2022-10-16T03:54:25;0.10;;;0.10;;
15404;SDS011;7801;48.124;11.590;2022-10-16T03:56:53;0.20;;;0.20;;
15404;SDS011;7801;48.124;11.590;2022-10-16T03:59:20;0.20;;;0.20;;
15404;SDS011;7801;48.124;11.590;2022-10-16T04:01:47;0.13;;;0.13;;
15404;SDS011;7801;48.124;11.590;2022-10-16T04:04:13;0.27;;;0.27;;
15404;SDS011;7801;48.124;11.590;2022-10-16T04:06:40;0.17;;;0.17;;
15404;SDS011;7801;48.124;11.590;2022-10-16T04:09:09;0.20;;;0.20;;
15404;SDS011;7801;48.124;11.590;2022-10-16T04:11:36;0.57;;;0.57;;
15404;SDS011;7801;48.124;11.590;2022-10-16T04:14:05;0.93;;;0.50;;
15404;SDS011;7801;48.124;11.590;2022-10-16T04:16:31;0.40;;;0.40;;
15404;SDS011;7801;48.124;11.590;2022-10-16T04:19:00;0.50;;;0.50;;
15404;SDS011;7801;48.124;11.590;2022-10-16T04:21:30;0.57;;;0.57;;
15404;SDS011;7801;48.124;11.590;2022-10-16T04:23:57;0.10;;;0.10;;
15404;SDS011;7801;48.124;11.590;2022-10-16T04:26:26;0.60;;;0.53;;
15404;SDS011;7801;48.124;11.590;2022-10-16T04:28:53;0.50;;;0.50;;
15404;SDS011;7801;48.124;11.590;2022-10-16T04:31:30;0.40;;;0.40;;
15404;SDS011;7801;48.124;11.590;2022-10-16T04:34:00;0.37;;;0.37;;
15404;SDS011;7801;48.124;11.590;2022-10-16T04:36:26;0.57;;;0.57;;
15404;SDS011;7801;48.124;11.590;2022-10-16T04:38:53;0.37;;;0.37;;
15404;SDS011;7801;48.124;11.590;2022-10-16T04:41:19;0.13;;;0.13;;
15404;SDS011;7801;48.124;11.590;2022-10-16T04:43:46;0.30;;;0.30;;
15404;SDS011;7801;48.124;11.590;2022-10-16T04:46:13;1.80;;;0.40;;
15404;SDS011;7801;48.124;11.590;2022-10-16T04:48:39;0.47;;;0.47;;
15404;SDS011;7801;48.124;11.590;2022-10-16T04:51:06;0.50;;;0.50;;
15404;SDS011;7801;48.124;11.590;2022-10-16T04:53:32;0.50;;;0.50;;
15404;SDS011;7801;48.124;11.590;2022-10-16T04:55:59;0.10;;;0.10;;
15404;SDS011;7801;48.124;11.590;2022-10-16T04:58:25;0.53;;;0.53;;
15404;SDS011;7801;48.124;11.590;2022-10-16T05:00:53;0.60;;;0.60;;
15404;SDS011;7801;48.124;11.590;2022-10-16T05:03:18;0.50;;;0.30;;
15404;SDS011;7801;48.124;11.590;2022-10-16T05:05:45;0.20;;;0.20;;
15404;SDS011;7801;48.124;11.590;2022-10-16T05:08:13;0.20;;;0.20;;
15404;SDS011;7801;48.124;11.590;2022-10-16T05:10:49;0.50;;;0.50;;
15404;SDS011;7801;48.124;11.590;2022-10-16T05:13:14;4.27;;;0.53;;
15404;SDS011;7801;48.124;11.590;2022-10-16T05:15:40;0.30;;;0.30;;
15404;SDS011;7801;48.124;11.590;2022-10-16T05:18:06;0.83;;;0.83;;
15404;SDS011;7801;48.124;11.590;2022-10-16T05:20:35;0.63;;;0.63;;
15404;SDS011;7801;48.124;11.590;2022-10-16T05:23:00;12.53;;;0.87;;
15404;SDS011;7801;48.124;11.590;2022-10-16T05:25:25;0.57;;;0.57;;
15404;SDS011;7801;48.124;11.590;2022-10-16T05:27:55;0.70;;;0.70;;
15404;SDS011;7801;48.124;11.590;2022-10-16T05:30:21;0.53;;;0.53;;
15404;SDS011;7801;48.124;11.590;2022-10-16T05:32:47;0.70;;;0.70;;
15404;SDS011;7801;48.124;11.590;2022-10-16T05:35:13;0.27;;;0.27;;
15404;SDS011;7801;48.124;11.590;2022-10-16T05:37:40;0.30;;;0.30;;
15404;SDS011;7801;48.124;11.590;2022-10-16T05:40:07;0.70;;;0.70;;
15404;SDS011;7801;48.124;11.590;2022-10-16T05:42:39;0.50;;;0.50;;
15404;SDS011;7801;48.124;11.590;2022-10-16T05:45:07;0.57;;;0.57;;
15404;SDS011;7801;48.124;11.590;2022-10-16T05:47:34;0.43;;;0.43;;
15404;SDS011;7801;48.124;11.590;2022-10-16T05:50:01;0.57;;;0.50;;
15404;SDS011;7801;48.124;11.590;2022-10-16T05:52:27;2.00;;;0.80;;
15404;SDS011;7801;48.124;11.590;2022-10-16T05:54:54;0.87;;;0.87;;
15404;SDS011;7801;48.124;11.590;2022-10-16T05:57:19;0.27;;;0.27;;
15404;SDS011;7801;48.124;11.590;2022-10-16T05:59:46;0.47;;;0.40;;
15404;SDS011;7801;48.124;11.590;2022-10-16T06:02:14;0.47;;;0.47;;
15404;SDS011;7801;48.124;11.590;2022-10-16T06:04:44;0.13;;;0.13;;
15404;SDS011;7801;48.124;11.590;2022-10-16T06:07:09;0.73;;;0.73;;
15404;SDS011;7801;48.124;11.590;2022-10-16T06:09:36;2.37;;;0.53;;
15404;SDS011;7801;48.124;11.590;2022-10-16T06:12:04;0.53;;;0.53;;
15404;SDS011;7801;48.124;11.590;2022-10-16T06:14:30;0.63;;;0.63;;
15404;SDS011;7801;48.124;11.590;2022-10-16T06:16:57;0.77;;;0.77;;
15404;SDS011;7801;48.124;11.590;2022-10-16T06:19:22;0.47;;;0.47;;
15404;SDS011;7801;48.124;11.590;2022-10-16T06:21:48;0.23;;;0.23;;
15404;SDS011;7801;48.124;11.590;2022-10-16T06:24:15;0.57;;;0.57;;
15404;SDS011;7801;48.124;11.590;2022-10-16T06:26:41;0.33;;;0.33;;
15404;SDS011;7801;48.124;11.590;2022-10-16T06:29:08;0.53;;;0.53;;
15404;SDS011;7801;48.124;11.590;2022-10-16T06:31:36;0.50;;;0.50;;
15404;SDS011;7801;48.124;11.590;2022-10-16T06:34:02;1.30;;;0.40;;
15404;SDS011;7801;48.124;11.590;2022-10-16T06:36:31;0.40;;;0.40;;
15404;SDS011;7801;48.124;11.590;2022-10-16T06:38:56;0.53;;;0.53;;
15404;SDS011;7801;48.124;11.590;2022-10-16T06:41:23;0.50;;;0.47;;
15404;SDS011;7801;48.124;11.590;2022-10-16T06:43:48;1.20;;;0.70;;
15404;SDS011;7801;48.124;11.590;2022-10-16T06:46:15;0.30;;;0.30;;
15404;SDS011;7801;48.124;11.590;2022-10-16T06:48:44;0.20;;;0.20;;
15404;SDS011;7801;48.124;11.590;2022-10-16T06:51:16;0.30;;;0.30;;
15404;SDS011;7801;48.124;11.590;2022-10-16T06:53:44;0.53;;;0.53;;
15404;SDS011;7801;48.124;11.590;2022-10-16T06:56:13;0.47;;;0.47;;
15404;SDS011;7801;48.124;11.590;2022-10-16T06:58:45;0.30;;;0.30;;
15404;SDS011;7801;48.124;11.590;2022-10-16T07:01:12;0.30;;;0.30;;
15404;SDS011;7801;48.124;11.590;2022-10-16T07:03:40;0.83;;;0.83;;
15404;SDS011;7801;48.124;11.590;2022-10-16T07:06:14;0.60;;;0.60;;
15404;SDS011;7801;48.124;11.590;2022-10-16T07:09:00;0.93;;;0.93;;
15404;SDS011;7801;48.124;11.590;2022-10-16T07:11:31;0.20;;;0.20;;
15404;SDS011;7801;48.124;11.590;2022-10-16T07:14:02;0.50;;;0.50;;
15404;SDS011;7801;48.124;11.590;2022-10-16T07:16:29;0.40;;;0.40;;
15404;SDS011;7801;48.124;11.590;2022-10-16T07:18:57;0.20;;;0.20;;
15404;SDS011;7801;48.124;11.590;2022-10-16T07:21:26;0.57;;;0.57;;
15404;SDS011;7801;48.124;11.590;2022-10-16T07:23:57;0.43;;;0.43;;
15404;SDS011;7801;48.124;11.590;2022-10-16T07:26:25;0.40;;;0.40;;
15404;SDS011;7801;48.124;11.590;2022-10-16T07:29:15;0.70;;;0.70;;
15404;SDS011;7801;48.124;11.590;2022-10-16T07:31:42;0.60;;;0.60;;
15404;SDS011;7801;48.124;11.590;2022-10-16T07:34:10;0.40;;;0.40;;
15404;SDS011;7801;48.124;11.590;2022-10-16T07:36:37;0.40;;;0.40;;
15404;SDS011;7801;48.124;11.590;2022-10-16T07:39:03;0.50;;;0.50;;
15404;SDS011;7801;48.124;11.590;2022-10-16T07:41:30;0.43;;;0.43;;
15404;SDS011;7801;48.124;11.590;2022-10-16T07:43:57;1.50;;;0.77;;
15404;SDS011;7801;48.124;11.590;2022-10-16T07:46:26;1.90;;;0.97;;
15404;SDS011;7801;48.124;11.590;2022-10-16T07:48:58;1.33;;;0.60;;
15404;SDS011;7801;48.124;11.590;2022-10-16T07:51:26;2.00;;;1.90;;
15404;SDS011;7801;48.124;11.590;2022-10-16T07:53:53;3.97;;;3.27;;
15404;SDS011;7801;48.124;11.590;2022-10-16T07:56:20;6.10;;;2.33;;
15404;SDS011;7801;48.124;11.590;2022-10-16T07:58:46;2.30;;;2.10;;
15404;SDS011;7801;48.124;11.590;2022-10-16T08:01:16;1.37;;;1.33;;
15404;SDS011;7801;48.124;11.590;2022-10-16T08:03:47;1.27;;;1.23;;
15404;SDS011;7801;48.124;11.590;2022-10-16T08:06:14;0.13;;;0.13;;
15404;SDS011;7801;48.124;11.590;2022-10-16T08:08:41;0.90;;;0.90;;
15404;SDS011;7801;48.124;11.590;2022-10-16T08:11:09;0.80;;;0.80;;
15404;SDS011;7801;48.124;11.590;2022-10-16T08:13:38;0.63;;;0.63;;
15404;SDS011;7801;48.124;11.590;2022-10-16T08:16:08;0.20;;;0.20;;
15404;SDS011;7801;48.124;11.590;2022-10-16T08:18:36;4.17;;;0.77;;
15404;SDS011;7801;48.124;11.590;2022-10-16T08:21:05;0.67;;;0.67;;
15404;SDS011;7801;48.124;11.590;2022-10-16T08:23:33;0.30;;;0.30;;
15404;SDS011;7801;48.124;11.590;2022-10-16T08:26:04;0.80;;;0.80;;
15404;SDS011;7801;48.124;11.590;2022-10-16T08:28:31;0.40;;;0.40;;
15404;SDS011;7801;48.124;11.590;2022-10-16T08:31:08;0.40;;;0.40;;
15404;SDS011;7801;48.124;11.590;2022-10-16T08:33:38;0.30;;;0.30;;
15404;SDS011;7801;48.124;11.590;2022-10-16T08:36:05;0.57;;;0.57;;
15404;SDS011;7801;48.124;11.590;2022-10-16T08:38:32;0.30;;;0.30;;
15404;SDS011;7801;48.124;11.590;2022-10-16T08:41:22;0.37;;;0.37;;
15404;SDS011;7801;48.124;11.590;2022-10-16T08:52:43;0.57;;;0.57;;
15404;SDS011;7801;48.124;11.590;2022-10-16T08:55:29;0.50;;;0.50;;
15404;SDS011;7801;48.124;11.590;2022-10-16T08:57:56;0.40;;;0.40;;
15404;SDS011;7801;48.124;11.590;2022-10-16T09:00:25;0.20;;;0.20;;
15404;SDS011;7801;48.124;11.590;2022-10-16T09:03:17;0.70;;;0.70;;
15404;SDS011;7801;48.124;11.590;2022-10-16T09:06:21;0.40;;;0.40;;
15404;SDS011;7801;48.124;11.590;2022-10-16T09:12:12;0.20;;;0.20;;
15404;SDS011;7801;48.124;11.590;2022-10-16T09:21:29;0.40;;;0.40;;
15404;SDS011;7801;48.124;11.590;2022-10-16T09:23:59;0.23;;;0.23;;
15404;SDS011;7801;48.124;11.590;2022-10-16T09:27:00;0.60;;;0.60;;
15404;SDS011;7801;48.124;11.590;2022-10-16T09:29:25;0.73;;;0.63;;
15404;SDS011;7801;48.124;11.590;2022-10-16T09:31:51;0.37;;;0.30;;
15404;SDS011;7801;48.124;11.590;2022-10-16T09:34:31;0.73;;;0.73;;
15404;SDS011;7801;48.124;11.590;2022-10-16T09:36:59;0.30;;;0.30;;
15404;SDS011;7801;48.124;11.590;2022-10-16T09:39:43;1.70;;;0.70;;
15404;SDS011;7801;48.124;11.590;2022-10-16T09:42:32;0.57;;;0.47;;
15404;SDS011;7801;48.124;11.590;2022-10-16T09:45:00;10.40;;;0.50;;
15404;SDS011;7801;48.124;11.590;2022-10-16T09:47:27;0.83;;;0.83;;
15404;SDS011;7801;48.124;11.590;2022-10-16T09:49:58;0.33;;;0.33;;
15404;SDS011;7801;48.124;11.590;2022-10-16T09:52:31;0.97;;;0.97;;
15404;SDS011;7801;48.124;11.590;2022-10-16T09:55:00;0.47;;;0.47;;
15404;SDS011;7801;48.124;11.590;2022-10-16T09:57:55;0.33;;;0.33;;
15404;SDS011;7801;48.124;11.590;2022-10-16T10:00:22;0.50;;;0.50;;
15404;SDS011;7801;48.124;11.590;2022-10-16T10:02:50;0.10;;;0.10;;
15404;SDS011;7801;48.124;11.590;2022-10-16T10:05:18;4.27;;;0.50;;
15404;SDS011;7801;48.124;11.590;2022-10-16T10:07:56;0.20;;;0.20;;
15404;SDS011;7801;48.124;11.590;2022-10-16T10:10:31;0.60;;;0.60;;
15404;SDS011;7801;48.124;11.590;2022-10-16T10:13:01;0.73;;;0.73;;
15404;SDS011;7801;48.124;11.590;2022-10-16T10:15:27;0.40;;;0.40;;
15404;SDS011;7801;48.124;11.590;2022-10-16T10:17:59;0.83;;;0.83;;
15404;SDS011;7801;48.124;11.590;2022-10-16T10:20:35;0.60;;;0.60;;
15404;SDS011;7801;48.124;11.590;2022-10-16T10:23:21;4.33;;;0.93;;
15404;SDS011;7801;48.124;11.590;2022-10-16T10:26:17;0.30;;;0.30;;
15404;SDS011;7801;48.124;11.590;2022-10-16T10:31:53;0.43;;;0.43;;
15404;SDS011;7801;48.124;11.590;2022-10-16T10:38:20;0.37;;;0.37;;
15404;SDS011;7801;48.124;11.590;2022-10-16T10:47:01;0.43;;;0.43;;
15404;SDS011;7801;48.124;11.590;2022-10-16T11:07:33;0.37;;;0.37;;
15404;SDS011;7801;48.124;11.590;2022-10-16T11:13:30;0.20;;;0.20;;
15404;SDS011;7801;48.124;11.590;2022-10-16T11:16:11;0.13;;;0.13;;
15404;SDS011;7801;48.124;11.590;2022-10-16T11:18:51;0.30;;;0.30;;
15404;SDS011;7801;48.124;11.590;2022-10-16T11:21:41;2.67;;;0.30;;
15404;SDS011;7801;48.124;11.590;2022-10-16T11:24:20;0.40;;;0.40;;
15404;SDS011;7801;48.124;11.590;2022-10-16T11:26:59;3.47;;;3.13;;
15404;SDS011;7801;48.124;11.590;2022-10-16T11:29:30;5.30;;;4.20;;
15404;SDS011;7801;48.124;11.590;2022-10-16T11:32:33;3.63;;;3.33;;
15404;SDS011;7801;48.124;11.590;2022-10-16T11:35:15;5.63;;;4.07;;
15404;SDS011;7801;48.124;11.590;2022-10-16T11:37:49;2.30;;;2.10;;
15404;SDS011;7801;48.124;11.590;2022-10-16T11:40:22;4.27;;;1.63;;
15404;SDS011;7801;48.124;11.590;2022-10-16T11:43:05;1.27;;;0.87;;
15404;SDS011;7801;48.124;11.590;2022-10-16T11:45:55;0.47;;;0.47;;
15404;SDS011;7801;48.124;11.590;2022-10-16T11:48:50;0.50;;;0.50;;
15404;SDS011;7801;48.124;11.590;2022-10-16T11:54:18;0.77;;;0.77;;
15404;SDS011;7801;48.124;11.590;2022-10-16T11:56:52;0.40;;;0.40;;
15404;SDS011;7801;48.124;11.590;2022-10-16T11:59:31;0.50;;;0.50;;
15404;SDS011;7801;48.124;11.590;2022-10-16T12:07:41;0.20;;;0.20;;
15404;SDS011;7801;48.124;11.590;2022-10-16T12:10:39;0.10;;;0.10;;
15404;SDS011;7801;48.124;11.590;2022-10-16T12:19:23;0.77;;;0.77;;
15404;SDS011;7801;48.124;11.590;2022-10-16T12:21:53;0.17;;;0.17;;
15404;SDS011;7801;48.124;11.590;2022-10-16T12:24:39;0.10;;;0.10;;
15404;SDS011;7801;48.124;11.590;2022-10-16T12:27:27;0.20;;;0.20;;
15404;SDS011;7801;48.124;11.590;2022-10-16T12:30:14;0.30;;;0.30;;
15404;SDS011;7801;48.124;11.590;2022-10-16T12:32:52;0.00;;;0.00;;
15404;SDS011;7801;48.124;11.590;2022-10-16T12:35:27;0.17;;;0.17;;
15404;SDS011;7801;48.124;11.590;2022-10-16T12:38:06;0.20;;;0.20;;
15404;SDS011;7801;48.124;11.590;2022-10-16T12:40:39;0.00;;;0.00;;
15404;SDS011;7801;48.124;11.590;2022-10-16T12:43:11;0.27;;;0.17;;
15404;SDS011;7801;48.124;11.590;2022-10-16T12:45:39;0.20;;;0.20;;
15404;SDS011;7801;48.124;11.590;2022-10-16T12:48:17;0.47;;;0.43;;
15404;SDS011;7801;48.124;11.590;2022-10-16T12:50:48;0.53;;;0.53;;
15404;SDS011;7801;48.124;11.590;2022-10-16T12:53:21;0.30;;;0.30;;
15404;SDS011;7801;48.124;11.590;2022-10-16T12:56:15;0.20;;;0.20;;
15404;SDS011;7801;48.124;11.590;2022-10-16T12:59:03;0.27;;;0.27;;
15404;SDS011;7801;48.124;11.590;2022-10-16T13:08:35;0.20;;;0.20;;
15404;SDS011;7801;48.124;11.590;2022-10-16T13:16:49;0.10;;;0.10;;
15404;SDS011;7801;48.124;11.590;2022-10-16T13:22:41;0.93;;;0.93;;
15404;SDS011;7801;48.124;11.590;2022-10-16T13:28:12;0.10;;;0.10;;
15404;SDS011;7801;48.124;11.590;2022-10-16T13:31:12;0.30;;;0.30;;
15404;SDS011;7801;48.124;11.590;2022-10-16T13:33:48;0.17;;;0.17;;
15404;SDS011;7801;48.124;11.590;2022-10-16T13:36:24;0.10;;;0.10;;
15404;SDS011;7801;48.124;11.590;2022-10-16T13:41:46;1.20;;;0.57;;
15404;SDS011;7801;48.124;11.590;2022-10-16T13:44:24;0.37;;;0.37;;
15404;SDS011;7801;48.124;11.590;2022-10-16T13:47:00;0.20;;;0.20;;
15404;SDS011;7801;48.124;11.590;2022-10-16T13:49:29;0.47;;;0.10;;
15404;SDS011;7801;48.124;11.590;2022-10-16T13:51:55;0.33;;;0.33;;
15404;SDS011;7801;48.124;11.590;2022-10-16T13:54:27;0.30;;;0.30;;
15404;SDS011;7801;48.124;11.590;2022-10-16T13:57:04;0.07;;;0.07;;
15404;SDS011;7801;48.124;11.590;2022-10-16T13:59:36;0.07;;;0.07;;
15404;SDS011;7801;48.124;11.590;2022-10-16T14:04:53;0.40;;;0.30;;
15404;SDS011;7801;48.124;11.590;2022-10-16T14:07:27;0.17;;;0.17;;
15404;SDS011;7801;48.124;11.590;2022-10-16T14:10:02;0.00;;;0.00;;
15404;SDS011;7801;48.124;11.590;2022-10-16T14:12:33;0.30;;;0.30;;
15404;SDS011;7801;48.124;11.590;2022-10-16T14:14:59;0.20;;;0.20;;
15404;SDS011;7801;48.124;11.590;2022-10-16T14:17:30;0.00;;;0.00;;
15404;SDS011;7801;48.124;11.590;2022-10-16T14:20:00;0.13;;;0.13;;
15404;SDS011;7801;48.124;11.590;2022-10-16T14:22:38;0.10;;;0.10;;
15404;SDS011;7801;48.124;11.590;2022-10-16T14:28:00;0.13;;;0.13;;
15404;SDS011;7801;48.124;11.590;2022-10-16T14:30:48;0.20;;;0.20;;
15404;SDS011;7801;48.124;11.590;2022-10-16T14:33:34;0.17;;;0.17;;
15404;SDS011;7801;48.124;11.590;2022-10-16T14:36:10;0.70;;;0.10;;
15404;SDS011;7801;48.124;11.590;2022-10-16T14:38:38;0.30;;;0.30;;
15404;SDS011;7801;48.124;11.590;2022-10-16T14:41:26;0.40;;;0.40;;
15404;SDS011;7801;48.124;11.590;2022-10-16T14:44:17;0.10;;;0.10;;
15404;SDS011;7801;48.124;11.590;2022-10-16T14:46:53;0.20;;;0.20;;
15404;SDS011;7801;48.124;11.590;2022-10-16T14:49:22;0.10;;;0.10;;
15404;SDS011;7801;48.124;11.590;2022-10-16T14:51:49;0.20;;;0.20;;
15404;SDS011;7801;48.124;11.590;2022-10-16T14:54:18;0.17;;;0.17;;
15404;SDS011;7801;48.124;11.590;2022-10-16T14:56:54;0.40;;;0.40;;
15404;SDS011;7801;48.124;11.590;2022-10-16T14:59:36;0.10;;;0.10;;
15404;SDS011;7801;48.124;11.590;2022-10-16T15:02:50;0.47;;;0.47;;
15404;SDS011;7801;48.124;11.590;2022-10-16T15:05:21;1.53;;;0.40;;
15404;SDS011;7801;48.124;11.590;2022-10-16T15:07:52;0.17;;;0.17;;
15404;SDS011;7801;48.124;11.590;2022-10-16T15:10:21;0.10;;;0.10;;
15404;SDS011;7801;48.124;11.590;2022-10-16T15:12:58;0.30;;;0.20;;
15404;SDS011;7801;48.124;11.590;2022-10-16T15:15:39;0.20;;;0.20;;
15404;SDS011;7801;48.124;11.590;2022-10-16T15:18:09;4.03;;;1.33;;
15404;SDS011;7801;48.124;11.590;2022-10-16T15:20:48;0.10;;;0.10;;
15404;SDS011;7801;48.124;11.590;2022-10-16T15:23:15;0.83;;;0.73;;
15404;SDS011;7801;48.124;11.590;2022-10-16T15:25:53;0.10;;;0.10;;
15404;SDS011;7801;48.124;11.590;2022-10-16T15:28:23;0.60;;;0.60;;
15404;SDS011;7801;48.124;11.590;2022-10-16T15:30:59;0.37;;;0.37;;
15404;SDS011;7801;48.124;11.590;2022-10-16T15:33:26;0.30;;;0.30;;
15404;SDS011;7801;48.124;11.590;2022-10-16T15:35:59;0.20;;;0.20;;
15404;SDS011;7801;48.124;11.590;2022-10-16T15:38:26;0.30;;;0.30;;
15404;SDS011;7801;48.124;11.590;2022-10-16T15:40:56;3.70;;;0.53;;
15404;SDS011;7801;48.124;11.590;2022-10-16T15:43:21;1.50;;;0.40;;
15404;SDS011;7801;48.124;11.590;2022-10-16T15:45:54;0.33;;;0.33;;
15404;SDS011;7801;48.124;11.590;2022-10-16T15:48:28;2.07;;;1.97;;
15404;SDS011;7801;48.124;11.590;2022-10-16T15:50:56;0.43;;;0.43;;
15404;SDS011;7801;48.124;11.590;2022-10-16T15:53:21;0.30;;;0.30;;
15404;SDS011;7801;48.124;11.590;2022-10-16T15:55:49;0.37;;;0.37;;
15404;SDS011;7801;48.124;11.590;2022-10-16T15:58:16;1.33;;;0.53;;
15404;SDS011;7801;48.124;11.590;2022-10-16T16:00:43;0.30;;;0.30;;
15404;SDS011;7801;48.124;11.590;2022-10-16T16:03:09;0.10;;;0.10;;
15404;SDS011;7801;48.124;11.590;2022-10-16T16:05:39;0.30;;;0.30;;
15404;SDS011;7801;48.124;11.590;2022-10-16T16:08:05;0.50;;;0.50;;
15404;SDS011;7801;48.124;11.590;2022-10-16T16:10:30;0.30;;;0.30;;
15404;SDS011;7801;48.124;11.590;2022-10-16T16:12:55;0.47;;;0.47;;
15404;SDS011;7801;48.124;11.590;2022-10-16T16:15:23;0.40;;;0.40;;
15404;SDS011;7801;48.124;11.590;2022-10-16T16:17:50;0.77;;;0.77;;
15404;SDS011;7801;48.124;11.590;2022-10-16T16:20:15;0.50;;;0.50;;
15404;SDS011;7801;48.124;11.590;2022-10-16T16:22:42;0.40;;;0.40;;
15404;SDS011;7801;48.124;11.590;2022-10-16T16:25:07;0.60;;;0.60;;
15404;SDS011;7801;48.124;11.590;2022-10-16T16:27:35;0.57;;;0.57;;
15404;SDS011;7801;48.124;11.590;2022-10-16T16:30:05;0.40;;;0.40;;
15404;SDS011;7801;48.124;11.590;2022-10-16T16:32:33;0.40;;;0.40;;
15404;SDS011;7801;48.124;11.590;2022-10-16T16:35:03;0.70;;;0.70;;
15404;SDS011;7801;48.124;11.590;2022-10-16T16:37:30;0.40;;;0.40;;
15404;SDS011;7801;48.124;11.590;2022-10-16T16:40:01;0.73;;;0.73;;
15404;SDS011;7801;48.124;11.590;2022-10-16T16:42:28;0.77;;;0.77;;
15404;SDS011;7801;48.124;11.590;2022-10-16T16:44:54;0.37;;;0.37;;
15404;SDS011;7801;48.124;11.590;2022-10-16T16:47:27;0.60;;;0.60;;
15404;SDS011;7801;48.124;11.590;2022-10-16T16:49:54;0.63;;;0.63;;
15404;SDS011;7801;48.124;11.590;2022-10-16T16:52:21;0.30;;;0.30;;
15404;SDS011;7801;48.124;11.590;2022-10-16T16:54:49;0.53;;;0.53;;
15404;SDS011;7801;48.124;11.590;2022-10-16T16:57:19;3.50;;;0.77;;
15404;SDS011;7801;48.124;11.590;2022-10-16T16:59:49;0.30;;;0.30;;
15404;SDS011;7801;48.124;11.590;2022-10-16T17:02:25;0.50;;;0.50;;
15404;SDS011;7801;48.124;11.590;2022-10-16T17:04:52;0.43;;;0.43;;
15404;SDS011;7801;48.124;11.590;2022-10-16T17:07:18;0.90;;;0.90;;
15404;SDS011;7801;48.124;11.590;2022-10-16T17:09:45;0.93;;;0.90;;